createdAt,value
2018-12-08T00:02:11.980Z,85.96
2018-12-08T00:06:56.282Z,84.47
2018-12-08T00:11:42.449Z,84.40
2018-12-08T00:16:27.632Z,82.73
2018-12-08T00:21:12.467Z,83.13
2018-12-08T00:25:57.812Z,85.20
2018-12-08T00:30:52.884Z,87.86
2018-12-08T00:35:38.842Z,87.18
2018-12-08T00:40:23.871Z,84.37
2018-12-08T00:45:09.054Z,88.62
2018-12-08T00:49:53.196Z,90.25
2018-12-08T00:54:39.165Z,89.27
2018-12-08T01:14:32.656Z,90.69
2018-12-08T01:19:18.619Z,92.95
2018-12-08T01:24:03.866Z,91.64
2018-12-08T01:28:48.489Z,92.98
2018-12-08T01:33:34.431Z,94.34
2018-12-08T01:38:22.176Z,95.17
2018-12-08T01:43:07.336Z,94.87
2018-12-08T01:47:52.454Z,93.72
2018-12-08T01:52:37.805Z,91.97
2018-12-08T01:57:25.743Z,91.08
2018-12-08T02:02:11.001Z,89.73
2018-12-08T02:06:57.983Z,93.69
2018-12-08T02:11:43.300Z,94.06
2018-12-08T02:16:28.050Z,91.48
2018-12-08T02:21:13.787Z,90.16
2018-12-08T02:25:58.400Z,90.17
2018-12-08T02:30:44.205Z,90.47
2018-12-08T02:35:29.973Z,89.31
2018-12-08T02:40:15.417Z,90.36
2018-12-08T02:44:59.648Z,90.27
2018-12-08T02:49:45.612Z,91.17
2018-12-08T02:54:31.006Z,91.80
2018-12-08T02:59:15.481Z,91.19
2018-12-08T03:04:01.224Z,94.62
2018-12-08T03:08:45.697Z,94.59
2018-12-08T03:13:31.955Z,92.85
2018-12-08T03:18:17.511Z,92.03
2018-12-08T03:23:03.199Z,93.96
2018-12-08T03:27:49.149Z,95.74
2018-12-08T03:32:34.438Z,93.60
2018-12-08T03:37:19.261Z,94.95
2018-12-08T03:42:04.699Z,96.51
2018-12-08T03:46:49.399Z,93.98
2018-12-08T03:51:36.568Z,95.11
2018-12-08T03:56:21.452Z,98.45
2018-12-08T04:01:07.152Z,95.81
2018-12-08T04:05:51.923Z,97.69
2018-12-08T04:10:37.424Z,97.87
2018-12-08T04:15:21.954Z,95.27
2018-12-08T04:20:07.745Z,95.66
2018-12-08T04:24:52.410Z,98.10
2018-12-08T04:29:37.782Z,97.12
2018-12-08T04:34:25.617Z,95.92
2018-12-08T04:39:11.040Z,97.91
2018-12-08T04:43:56.808Z,96.34
2018-12-08T04:48:43.010Z,96.98
2018-12-08T04:53:27.892Z,96.13
2018-12-08T04:58:13.581Z,94.75
2018-12-08T05:02:58.280Z,93.43
2018-12-08T05:07:44.973Z,93.16
2018-12-08T05:12:29.201Z,93.43
2018-12-08T05:17:13.981Z,93.89
2018-12-08T05:21:59.401Z,95.36
2018-12-08T05:26:47.263Z,95.73
2018-12-08T05:31:33.366Z,97.84
2018-12-08T05:36:17.957Z,94.34
2018-12-08T05:41:03.628Z,94.90
2018-12-08T05:45:50.084Z,93.37
2018-12-08T05:50:35.732Z,91.98
2018-12-08T05:55:21.836Z,94.13
2018-12-08T06:04:50.547Z,94.79
2018-12-08T06:09:36.485Z,93.34
2018-12-08T06:14:21.919Z,95.47
2018-12-08T06:19:06.640Z,100.00
2018-12-08T06:23:52.188Z,92.85
2018-12-08T06:28:41.007Z,92.06
2018-12-08T06:33:26.144Z,90.18
2018-12-08T06:38:10.480Z,89.16
2018-12-08T06:42:56.167Z,86.99
2018-12-08T06:47:42.420Z,86.39
2018-12-08T06:52:27.007Z,85.86
2018-12-08T06:57:16.326Z,83.45
2018-12-08T07:02:02.032Z,82.27
2018-12-08T07:06:46.707Z,79.17
2018-12-08T07:11:32.689Z,76.75
2018-12-08T07:16:20.148Z,77.80
2018-12-08T07:21:06.453Z,73.78
2018-12-08T07:25:50.780Z,73.44
2018-12-08T07:30:36.114Z,69.22
2018-12-08T07:35:20.897Z,71.12
2018-12-08T07:40:06.685Z,66.10
2018-12-08T07:44:54.752Z,64.57
2018-12-08T07:49:40.121Z,63.02
2018-12-08T07:54:25.276Z,62.41
2018-12-08T07:59:10.820Z,58.37
2018-12-08T08:03:55.068Z,56.79
2018-12-08T08:08:39.294Z,56.37
2018-12-08T08:13:24.213Z,57.61
2018-12-08T08:18:09.400Z,59.10
2018-12-08T08:22:54.350Z,57.75
2018-12-08T08:27:39.622Z,58.27
2018-12-08T08:32:24.105Z,55.80
2018-12-08T08:37:09.648Z,55.31
2018-12-08T08:41:53.834Z,55.91
2018-12-08T08:46:43.517Z,55.90
2018-12-08T08:51:29.185Z,58.70
2018-12-08T08:56:14.936Z,57.81
2018-12-08T09:01:03.018Z,56.48
2018-12-08T09:05:47.508Z,54.11
2018-12-08T09:10:34.944Z,52.78
2018-12-08T09:15:23.175Z,54.82
2018-12-08T09:20:10.997Z,50.97
2018-12-08T09:24:55.521Z,56.90
2018-12-08T09:29:41.703Z,55.16
2018-12-08T09:34:29.098Z,52.69
2018-12-08T09:39:13.775Z,49.00
2018-12-08T09:43:59.102Z,51.00
2018-12-08T09:48:44.385Z,54.70
2018-12-08T09:53:28.995Z,53.65
2018-12-08T09:58:14.077Z,53.55
2018-12-08T10:03:01.160Z,50.21
2018-12-08T10:07:47.090Z,49.95
2018-12-08T10:12:32.300Z,49.10
2018-12-08T10:17:18.285Z,49.31
2018-12-08T10:22:06.793Z,50.20
2018-12-08T10:26:52.711Z,51.87
2018-12-08T10:31:38.207Z,44.54
2018-12-08T10:36:22.834Z,50.81
2018-12-08T10:41:09.387Z,46.08
2018-12-08T10:45:54.184Z,41.84
2018-12-08T10:50:39.234Z,42.98
2018-12-08T10:55:25.123Z,41.23
2018-12-08T11:00:15.461Z,42.20
2018-12-08T11:04:59.679Z,37.80
2018-12-08T11:09:43.888Z,39.53
2018-12-08T11:14:32.625Z,40.91
2018-12-08T11:19:19.072Z,40.84
2018-12-08T11:24:03.198Z,38.18
2018-12-08T11:28:47.388Z,37.85
2018-12-08T11:33:32.237Z,37.87
2018-12-08T11:38:18.099Z,40.28
2018-12-08T11:43:02.341Z,38.93
2018-12-08T11:47:46.617Z,37.17
2018-12-08T11:52:32.528Z,36.74
2018-12-08T11:57:18.174Z,39.49
2018-12-08T12:02:02.261Z,39.63
2018-12-08T12:06:46.764Z,38.69
2018-12-08T12:11:37.295Z,39.70
2018-12-08T12:16:22.304Z,40.45
2018-12-08T12:21:06.539Z,37.57
2018-12-08T12:25:53.603Z,41.17
2018-12-08T12:30:38.856Z,41.39
2018-12-08T12:35:23.000Z,44.93
2018-12-08T12:40:08.989Z,43.30
2018-12-08T12:44:54.109Z,43.18
2018-12-08T12:49:39.557Z,46.03
2018-12-08T12:54:25.529Z,47.46
2018-12-08T12:59:12.358Z,46.67
2018-12-08T13:03:57.008Z,46.55
2018-12-08T13:08:42.319Z,46.21
2018-12-08T13:13:27.592Z,46.12
2018-12-08T13:18:12.763Z,46.11
2018-12-08T13:23:01.084Z,47.29
2018-12-08T13:27:46.625Z,47.45
2018-12-08T13:32:31.846Z,45.54
2018-12-08T13:37:16.316Z,47.46
2018-12-08T13:42:01.966Z,46.26
2018-12-08T13:46:47.141Z,48.97
2018-12-08T13:51:32.142Z,48.92
2018-12-08T13:56:17.925Z,49.11
2018-12-08T14:01:02.428Z,48.47
2018-12-08T14:05:52.273Z,50.55
2018-12-08T14:10:38.003Z,49.83
2018-12-08T14:15:23.445Z,49.10
2018-12-08T14:20:19.450Z,49.89
2018-12-08T14:25:03.670Z,50.90
2018-12-08T14:29:48.898Z,51.05
2018-12-08T14:34:34.889Z,52.93
2018-12-08T14:39:19.152Z,53.61
2018-12-08T14:44:04.074Z,54.14
2018-12-08T14:48:49.606Z,56.16
2018-12-08T14:53:35.492Z,59.41
2018-12-08T14:58:20.673Z,59.82
2018-12-08T15:03:10.944Z,62.05
2018-12-08T15:07:55.615Z,63.23
2018-12-08T15:12:41.570Z,60.52
2018-12-08T15:17:26.253Z,60.05
2018-12-08T15:22:13.021Z,62.64
2018-12-08T15:26:57.196Z,64.56
2018-12-08T15:31:42.359Z,62.61
2018-12-08T15:36:27.553Z,62.80
2018-12-08T15:41:11.728Z,63.29
2018-12-08T15:45:57.925Z,62.82
2018-12-08T15:50:44.601Z,62.74
2018-12-08T15:55:29.584Z,62.52
2018-12-08T16:00:15.863Z,63.06
2018-12-08T16:05:00.730Z,63.15
2018-12-08T16:09:47.423Z,66.91
2018-12-08T16:14:32.627Z,68.68
2018-12-08T16:19:18.276Z,69.30
2018-12-08T16:24:02.643Z,69.96
2018-12-08T16:28:48.969Z,67.27
2018-12-08T16:33:36.193Z,67.67
2018-12-08T16:38:22.157Z,71.18
2018-12-08T16:43:07.012Z,70.53
2018-12-08T16:47:52.475Z,71.30
2018-12-08T16:52:38.398Z,72.47
2018-12-08T16:57:24.361Z,72.77
2018-12-08T17:02:08.549Z,71.53
2018-12-08T17:06:53.639Z,70.40
2018-12-08T17:11:38.862Z,69.84
2018-12-08T17:16:23.179Z,70.04
2018-12-08T17:21:09.348Z,73.90
2018-12-08T17:26:00.937Z,75.29
2018-12-08T17:30:45.348Z,73.98
2018-12-08T17:35:31.486Z,71.20
2018-12-08T17:40:15.950Z,69.54
2018-12-08T17:45:02.666Z,72.29
2018-12-08T17:49:47.587Z,70.97
2018-12-08T17:54:33.594Z,69.75
2018-12-08T17:59:19.855Z,69.16
2018-12-08T18:04:04.647Z,69.81
2018-12-08T18:08:50.293Z,69.33
2018-12-08T18:13:35.545Z,69.14
2018-12-08T18:18:20.764Z,70.40
2018-12-08T18:23:06.167Z,68.65
2018-12-08T18:27:51.716Z,67.86
2018-12-08T18:32:36.383Z,70.14
2018-12-08T18:37:21.644Z,68.38
2018-12-08T18:42:08.629Z,69.30
2018-12-08T18:46:53.889Z,70.73
2018-12-08T18:51:42.485Z,69.13
2018-12-08T18:56:27.766Z,70.63
2018-12-08T19:01:32.295Z,72.02
2018-12-08T19:06:18.473Z,70.58
2018-12-08T19:11:03.150Z,69.57
2018-12-08T19:15:55.866Z,70.99
2018-12-08T19:20:41.487Z,71.20
2018-12-08T19:25:26.828Z,70.72
2018-12-08T19:30:15.515Z,71.82
2018-12-08T19:35:01.054Z,73.32
2018-12-08T19:39:45.477Z,72.55
2018-12-08T19:44:31.650Z,71.28
2018-12-08T19:49:18.191Z,71.15
2018-12-08T19:54:03.750Z,70.71
2018-12-08T19:58:48.279Z,76.37
2018-12-08T20:03:33.717Z,73.30
2018-12-08T20:08:19.993Z,71.68
2018-12-08T20:13:06.713Z,74.63
2018-12-08T20:17:51.021Z,77.90
2018-12-08T20:22:36.536Z,77.24
2018-12-08T20:27:21.483Z,74.78
2018-12-08T20:32:07.842Z,73.95
2018-12-08T20:36:53.046Z,73.54
2018-12-08T20:41:43.473Z,73.39
2018-12-08T20:46:28.686Z,72.78
2018-12-08T20:51:13.881Z,75.52
2018-12-08T20:55:59.193Z,77.25
2018-12-08T21:00:44.447Z,74.43
2018-12-08T21:05:34.095Z,73.42
2018-12-08T21:10:18.422Z,73.81
2018-12-08T21:15:04.049Z,73.59
2018-12-08T21:19:48.120Z,77.14
2018-12-08T21:24:32.731Z,78.81
2018-12-08T21:29:18.317Z,80.73
2018-12-08T21:34:04.017Z,79.73
2018-12-08T21:38:53.154Z,80.45
2018-12-08T21:43:38.325Z,79.30
2018-12-08T21:48:23.557Z,77.24
2018-12-08T21:53:08.951Z,75.95
2018-12-08T21:57:56.704Z,77.55
2018-12-08T22:02:41.384Z,76.24
2018-12-08T22:07:27.312Z,76.02
2018-12-08T22:12:13.845Z,77.35
2018-12-08T22:16:58.732Z,76.91
2018-12-08T22:21:44.478Z,76.15
2018-12-08T22:26:29.317Z,75.97
2018-12-08T22:31:14.415Z,76.44
2018-12-08T22:35:58.679Z,76.86
2018-12-08T22:40:47.463Z,77.01
2018-12-08T22:45:31.907Z,77.80
2018-12-08T22:50:17.651Z,84.60
2018-12-08T22:55:04.208Z,83.29
2018-12-08T22:59:48.485Z,82.81
2018-12-08T23:04:34.663Z,82.23
2018-12-08T23:09:19.853Z,81.64
2018-12-08T23:14:06.064Z,80.81
2018-12-08T23:18:51.345Z,81.48
2018-12-08T23:23:36.684Z,83.41
2018-12-08T23:28:20.943Z,88.61
2018-12-08T23:33:05.282Z,85.11
2018-12-08T23:37:51.006Z,82.74
2018-12-08T23:42:37.533Z,81.32
2018-12-08T23:47:21.830Z,80.48
2018-12-08T23:52:11.423Z,80.21
2018-12-08T23:56:57.137Z,81.25
